sensor_id;sensor_type;location;lat;lon;timestamp;temperature;humidity
13464;DHT22;6804;48.774;9.174;2023-06-04T00:01:28;19.80;87.90
13464;DHT22;6804;48.774;9.174;2023-06-04T00:03:56;19.80;87.90
13464;DHT22;6804;48.774;9.174;2023-06-04T00:06:27;19.70;88.10
13464;DHT22;6804;48.774;9.174;2023-06-04T00:08:55;19.60;88.60
13464;DHT22;6804;48.774;9.174;2023-06-04T00:11:24;19.60;88.70
13464;DHT22;6804;48.774;9.174;2023-06-04T00:13:52;19.60;88.70
13464;DHT22;6804;48.774;9.174;2023-06-04T00:16:19;19.50;88.90
13464;DHT22;6804;48.774;9.174;2023-06-04T00:18:47;19.40;89.40
13464;DHT22;6804;48.774;9.174;2023-06-04T00:21:14;19.40;89.40
13464;DHT22;6804;48.774;9.174;2023-06-04T00:23:42;19.40;89.40
13464;DHT22;6804;48.774;9.174;2023-06-04T00:26:12;19.40;90.20
13464;DHT22;6804;48.774;9.174;2023-06-04T00:28:41;19.40;89.50
13464;DHT22;6804;48.774;9.174;2023-06-04T00:31:12;19.30;89.60
13464;DHT22;6804;48.774;9.174;2023-06-04T00:33:39;19.30;89.60
13464;DHT22;6804;48.774;9.174;2023-06-04T00:36:07;19.30;89.80
13464;DHT22;6804;48.774;9.174;2023-06-04T00:38:35;19.30;89.80
13464;DHT22;6804;48.774;9.174;2023-06-04T00:41:10;19.30;89.90
13464;DHT22;6804;48.774;9.174;2023-06-04T00:43:37;19.30;89.90
13464;DHT22;6804;48.774;9.174;2023-06-04T00:46:07;19.20;89.50
13464;DHT22;6804;48.774;9.174;2023-06-04T00:48:35;19.20;90.10
13464;DHT22;6804;48.774;9.174;2023-06-04T00:51:04;19.10;90.00
13464;DHT22;6804;48.774;9.174;2023-06-04T00:53:32;19.00;90.10
13464;DHT22;6804;48.774;9.174;2023-06-04T00:56:00;19.00;90.10
13464;DHT22;6804;48.774;9.174;2023-06-04T00:58:32;19.00;90.20
13464;DHT22;6804;48.774;9.174;2023-06-04T01:01:04;19.00;90.10
13464;DHT22;6804;48.774;9.174;2023-06-04T01:03:42;18.90;90.10
13464;DHT22;6804;48.774;9.174;2023-06-04T01:06:15;18.90;90.10
13464;DHT22;6804;48.774;9.174;2023-06-04T01:08:49;18.80;90.30
13464;DHT22;6804;48.774;9.174;2023-06-04T01:11:32;18.70;90.50
13464;DHT22;6804;48.774;9.174;2023-06-04T01:14:03;18.60;90.70
13464;DHT22;6804;48.774;9.174;2023-06-04T01:16:37;18.60;90.80
13464;DHT22;6804;48.774;9.174;2023-06-04T01:19:16;18.60;90.60
13464;DHT22;6804;48.774;9.174;2023-06-04T01:21:52;18.60;90.80
13464;DHT22;6804;48.774;9.174;2023-06-04T01:24:25;18.70;90.70
13464;DHT22;6804;48.774;9.174;2023-06-04T01:26:55;18.70;90.70
13464;DHT22;6804;48.774;9.174;2023-06-04T01:29:23;18.60;90.80
13464;DHT22;6804;48.774;9.174;2023-06-04T01:31:52;18.60;90.80
13464;DHT22;6804;48.774;9.174;2023-06-04T01:34:24;18.70;90.80
13464;DHT22;6804;48.774;9.174;2023-06-04T01:36:51;18.70;90.80
13464;DHT22;6804;48.774;9.174;2023-06-04T01:39:20;18.70;90.60
13464;DHT22;6804;48.774;9.174;2023-06-04T01:41:47;18.60;90.80
13464;DHT22;6804;48.774;9.174;2023-06-04T01:47:19;18.40;90.90
13464;DHT22;6804;48.774;9.174;2023-06-04T01:49:50;18.40;91.10
13464;DHT22;6804;48.774;9.174;2023-06-04T01:52:18;18.40;91.10
13464;DHT22;6804;48.774;9.174;2023-06-04T01:54:46;18.40;91.10
13464;DHT22;6804;48.774;9.174;2023-06-04T01:57:20;18.40;91.20
13464;DHT22;6804;48.774;9.174;2023-06-04T01:59:48;18.40;91.10
13464;DHT22;6804;48.774;9.174;2023-06-04T02:02:16;18.40;91.10
13464;DHT22;6804;48.774;9.174;2023-06-04T02:04:46;18.30;91.10
13464;DHT22;6804;48.774;9.174;2023-06-04T02:07:18;18.30;91.10
13464;DHT22;6804;48.774;9.174;2023-06-04T02:09:47;18.20;91.20
13464;DHT22;6804;48.774;9.174;2023-06-04T02:12:15;18.20;91.20
13464;DHT22;6804;48.774;9.174;2023-06-04T02:14:51;18.20;91.10
13464;DHT22;6804;48.774;9.174;2023-06-04T02:17:18;18.10;91.20
13464;DHT22;6804;48.774;9.174;2023-06-04T02:19:46;18.10;91.30
13464;DHT22;6804;48.774;9.174;2023-06-04T02:22:17;18.00;91.30
13464;DHT22;6804;48.774;9.174;2023-06-04T02:24:45;18.00;91.70
13464;DHT22;6804;48.774;9.174;2023-06-04T02:27:13;17.90;91.90
13464;DHT22;6804;48.774;9.174;2023-06-04T02:29:47;17.70;92.10
13464;DHT22;6804;48.774;9.174;2023-06-04T02:32:14;17.70;92.30
13464;DHT22;6804;48.774;9.174;2023-06-04T02:34:42;17.70;92.10
13464;DHT22;6804;48.774;9.174;2023-06-04T02:37:11;17.70;91.90
13464;DHT22;6804;48.774;9.174;2023-06-04T02:39:40;17.70;92.10
13464;DHT22;6804;48.774;9.174;2023-06-04T02:42:08;17.70;92.10
13464;DHT22;6804;48.774;9.174;2023-06-04T02:44:35;17.80;91.90
13464;DHT22;6804;48.774;9.174;2023-06-04T02:47:03;17.80;92.00
13464;DHT22;6804;48.774;9.174;2023-06-04T02:49:31;17.80;91.80
13464;DHT22;6804;48.774;9.174;2023-06-04T02:51:58;17.80;91.80
13464;DHT22;6804;48.774;9.174;2023-06-04T02:54:25;17.60;91.60
13464;DHT22;6804;48.774;9.174;2023-06-04T02:56:54;17.50;91.80
13464;DHT22;6804;48.774;9.174;2023-06-04T02:59:22;17.50;91.60
13464;DHT22;6804;48.774;9.174;2023-06-04T03:01:49;17.40;89.70
13464;DHT22;6804;48.774;9.174;2023-06-04T03:04:17;17.20;88.30
13464;DHT22;6804;48.774;9.174;2023-06-04T03:06:46;17.10;88.20
13464;DHT22;6804;48.774;9.174;2023-06-04T03:09:13;17.10;88.50
13464;DHT22;6804;48.774;9.174;2023-06-04T03:11:41;17.10;88.20
13464;DHT22;6804;48.774;9.174;2023-06-04T03:14:13;17.10;87.00
13464;DHT22;6804;48.774;9.174;2023-06-04T03:16:40;16.90;86.80
13464;DHT22;6804;48.774;9.174;2023-06-04T03:19:11;16.80;85.90
13464;DHT22;6804;48.774;9.174;2023-06-04T03:21:38;16.60;86.20
13464;DHT22;6804;48.774;9.174;2023-06-04T03:24:06;16.50;87.00
13464;DHT22;6804;48.774;9.174;2023-06-04T03:26:35;16.40;86.90
13464;DHT22;6804;48.774;9.174;2023-06-04T03:29:05;16.30;86.70
13464;DHT22;6804;48.774;9.174;2023-06-04T03:31:34;16.30;87.00
13464;DHT22;6804;48.774;9.174;2023-06-04T03:34:02;16.20;86.10
13464;DHT22;6804;48.774;9.174;2023-06-04T03:36:36;16.20;86.10
13464;DHT22;6804;48.774;9.174;2023-06-04T03:39:06;16.20;86.80
13464;DHT22;6804;48.774;9.174;2023-06-04T03:41:34;16.20;86.80
13464;DHT22;6804;48.774;9.174;2023-06-04T03:44:02;16.30;86.50
13464;DHT22;6804;48.774;9.174;2023-06-04T03:46:37;16.50;86.30
13464;DHT22;6804;48.774;9.174;2023-06-04T03:49:06;16.50;85.10
13464;DHT22;6804;48.774;9.174;2023-06-04T03:51:37;16.40;85.10
13464;DHT22;6804;48.774;9.174;2023-06-04T03:54:04;16.40;86.10
13464;DHT22;6804;48.774;9.174;2023-06-04T03:56:32;16.40;86.00
13464;DHT22;6804;48.774;9.174;2023-06-04T03:58:59;16.30;85.30
13464;DHT22;6804;48.774;9.174;2023-06-04T04:01:27;16.20;86.10
13464;DHT22;6804;48.774;9.174;2023-06-04T04:03:58;16.00;86.10
13464;DHT22;6804;48.774;9.174;2023-06-04T04:06:29;16.00;86.20
13464;DHT22;6804;48.774;9.174;2023-06-04T04:08:56;16.10;89.20
13464;DHT22;6804;48.774;9.174;2023-06-04T04:11:24;16.10;90.70
13464;DHT22;6804;48.774;9.174;2023-06-04T04:13:56;16.30;90.60
13464;DHT22;6804;48.774;9.174;2023-06-04T04:16:25;16.40;91.60
13464;DHT22;6804;48.774;9.174;2023-06-04T04:18:53;16.60;92.20
13464;DHT22;6804;48.774;9.174;2023-06-04T04:21:23;16.70;91.70
13464;DHT22;6804;48.774;9.174;2023-06-04T04:23:55;16.70;86.70
13464;DHT22;6804;48.774;9.174;2023-06-04T04:26:23;16.60;86.60
13464;DHT22;6804;48.774;9.174;2023-06-04T04:28:57;16.50;86.60
13464;DHT22;6804;48.774;9.174;2023-06-04T04:31:26;16.50;86.30
13464;DHT22;6804;48.774;9.174;2023-06-04T04:33:55;16.50;86.60
13464;DHT22;6804;48.774;9.174;2023-06-04T04:36:24;16.50;86.80
13464;DHT22;6804;48.774;9.174;2023-06-04T04:38:52;16.30;86.90
13464;DHT22;6804;48.774;9.174;2023-06-04T04:41:21;16.30;87.70
13464;DHT22;6804;48.774;9.174;2023-06-04T04:43:49;16.30;87.10
13464;DHT22;6804;48.774;9.174;2023-06-04T04:46:16;16.30;86.70
13464;DHT22;6804;48.774;9.174;2023-06-04T04:48:44;16.30;87.60
13464;DHT22;6804;48.774;9.174;2023-06-04T04:51:11;16.30;87.10
13464;DHT22;6804;48.774;9.174;2023-06-04T04:53:43;16.50;87.30
13464;DHT22;6804;48.774;9.174;2023-06-04T04:56:10;16.50;88.00
13464;DHT22;6804;48.774;9.174;2023-06-04T04:58:37;16.60;88.00
13464;DHT22;6804;48.774;9.174;2023-06-04T05:01:05;16.70;87.90
13464;DHT22;6804;48.774;9.174;2023-06-04T05:03:35;16.90;88.20
13464;DHT22;6804;48.774;9.174;2023-06-04T05:06:06;17.20;86.90
13464;DHT22;6804;48.774;9.174;2023-06-04T05:08:33;17.50;87.10
13464;DHT22;6804;48.774;9.174;2023-06-04T05:11:05;17.80;86.00
13464;DHT22;6804;48.774;9.174;2023-06-04T05:13:33;18.20;85.00
13464;DHT22;6804;48.774;9.174;2023-06-04T05:16:00;18.10;82.60
13464;DHT22;6804;48.774;9.174;2023-06-04T05:18:51;18.10;82.60
13464;DHT22;6804;48.774;9.174;2023-06-04T05:21:18;18.10;83.60
13464;DHT22;6804;48.774;9.174;2023-06-04T05:24:05;18.30;83.40
13464;DHT22;6804;48.774;9.174;2023-06-04T05:26:37;18.60;82.20
13464;DHT22;6804;48.774;9.174;2023-06-04T05:29:06;18.80;80.50
13464;DHT22;6804;48.774;9.174;2023-06-04T05:31:34;19.00;80.60
13464;DHT22;6804;48.774;9.174;2023-06-04T05:34:02;19.30;80.00
13464;DHT22;6804;48.774;9.174;2023-06-04T05:36:30;19.40;78.70
13464;DHT22;6804;48.774;9.174;2023-06-04T05:38:59;19.40;77.60
13464;DHT22;6804;48.774;9.174;2023-06-04T05:41:26;19.40;77.30
13464;DHT22;6804;48.774;9.174;2023-06-04T05:43:55;19.30;77.30
13464;DHT22;6804;48.774;9.174;2023-06-04T05:46:23;19.30;77.80
13464;DHT22;6804;48.774;9.174;2023-06-04T05:48:53;19.20;77.60
13464;DHT22;6804;48.774;9.174;2023-06-04T05:51:20;19.10;77.10
13464;DHT22;6804;48.774;9.174;2023-06-04T05:53:51;19.10;77.80
13464;DHT22;6804;48.774;9.174;2023-06-04T05:56:21;19.00;78.00
13464;DHT22;6804;48.774;9.174;2023-06-04T05:58:51;19.00;78.00
13464;DHT22;6804;48.774;9.174;2023-06-04T06:01:20;19.00;77.90
13464;DHT22;6804;48.774;9.174;2023-06-04T06:03:48;19.10;78.70
13464;DHT22;6804;48.774;9.174;2023-06-04T06:06:19;19.30;77.70
13464;DHT22;6804;48.774;9.174;2023-06-04T06:08:46;19.20;77.70
13464;DHT22;6804;48.774;9.174;2023-06-04T06:11:15;19.40;77.60
13464;DHT22;6804;48.774;9.174;2023-06-04T06:13:45;19.60;78.20
13464;DHT22;6804;48.774;9.174;2023-06-04T06:16:13;19.90;77.50
13464;DHT22;6804;48.774;9.174;2023-06-04T06:18:45;19.90;76.00
13464;DHT22;6804;48.774;9.174;2023-06-04T06:21:15;19.90;77.40
13464;DHT22;6804;48.774;9.174;2023-06-04T06:23:45;20.20;77.00
13464;DHT22;6804;48.774;9.174;2023-06-04T06:26:18;20.60;75.60
13464;DHT22;6804;48.774;9.174;2023-06-04T06:28:48;20.80;74.60
13464;DHT22;6804;48.774;9.174;2023-06-04T06:31:15;21.00;73.00
13464;DHT22;6804;48.774;9.174;2023-06-04T06:33:47;20.90;71.90
13464;DHT22;6804;48.774;9.174;2023-06-04T06:36:16;21.00;72.60
13464;DHT22;6804;48.774;9.174;2023-06-04T06:38:47;20.90;71.80
13464;DHT22;6804;48.774;9.174;2023-06-04T06:41:17;20.90;73.10
13464;DHT22;6804;48.774;9.174;2023-06-04T06:43:44;21.10;72.90
13464;DHT22;6804;48.774;9.174;2023-06-04T06:46:11;21.30;72.10
13464;DHT22;6804;48.774;9.174;2023-06-04T06:48:40;21.30;71.50
13464;DHT22;6804;48.774;9.174;2023-06-04T06:51:12;21.40;71.80
13464;DHT22;6804;48.774;9.174;2023-06-04T06:53:40;21.50;70.40
13464;DHT22;6804;48.774;9.174;2023-06-04T06:56:07;21.10;71.30
13464;DHT22;6804;48.774;9.174;2023-06-04T06:58:37;21.00;70.90
13464;DHT22;6804;48.774;9.174;2023-06-04T07:01:04;20.90;72.40
13464;DHT22;6804;48.774;9.174;2023-06-04T07:03:31;21.00;72.20
13464;DHT22;6804;48.774;9.174;2023-06-04T07:06:02;21.10;71.70
13464;DHT22;6804;48.774;9.174;2023-06-04T07:08:31;21.20;71.90
13464;DHT22;6804;48.774;9.174;2023-06-04T07:10:58;21.30;70.90
13464;DHT22;6804;48.774;9.174;2023-06-04T07:13:29;21.40;71.10
13464;DHT22;6804;48.774;9.174;2023-06-04T07:15:58;21.30;71.30
13464;DHT22;6804;48.774;9.174;2023-06-04T07:18:26;20.90;71.90
13464;DHT22;6804;48.774;9.174;2023-06-04T07:20:55;20.60;73.00
13464;DHT22;6804;48.774;9.174;2023-06-04T07:23:23;20.60;73.50
13464;DHT22;6804;48.774;9.174;2023-06-04T07:25:52;20.70;73.80
13464;DHT22;6804;48.774;9.174;2023-06-04T07:28:19;20.80;73.50
13464;DHT22;6804;48.774;9.174;2023-06-04T07:30:49;20.70;72.90
13464;DHT22;6804;48.774;9.174;2023-06-04T07:33:16;20.50;74.10
13464;DHT22;6804;48.774;9.174;2023-06-04T07:35:50;20.20;74.10
13464;DHT22;6804;48.774;9.174;2023-06-04T07:38:18;20.20;75.80
13464;DHT22;6804;48.774;9.174;2023-06-04T07:40:49;20.60;76.00
13464;DHT22;6804;48.774;9.174;2023-06-04T07:43:18;21.10;74.80
13464;DHT22;6804;48.774;9.174;2023-06-04T07:45:45;21.40;74.00
13464;DHT22;6804;48.774;9.174;2023-06-04T07:48:17;21.80;73.40
13464;DHT22;6804;48.774;9.174;2023-06-04T07:50:51;22.10;73.40
13464;DHT22;6804;48.774;9.174;2023-06-04T07:53:21;22.30;72.00
13464;DHT22;6804;48.774;9.174;2023-06-04T07:55:49;22.60;72.00
13464;DHT22;6804;48.774;9.174;2023-06-04T07:58:18;22.50;70.20
13464;DHT22;6804;48.774;9.174;2023-06-04T08:00:45;22.40;72.30
13464;DHT22;6804;48.774;9.174;2023-06-04T08:03:13;22.60;72.30
13464;DHT22;6804;48.774;9.174;2023-06-04T08:05:41;23.00;71.50
13464;DHT22;6804;48.774;9.174;2023-06-04T08:08:11;23.20;70.20
13464;DHT22;6804;48.774;9.174;2023-06-04T08:10:40;23.00;71.10
13464;DHT22;6804;48.774;9.174;2023-06-04T08:13:10;23.00;70.70
13464;DHT22;6804;48.774;9.174;2023-06-04T08:15:39;23.10;70.80
13464;DHT22;6804;48.774;9.174;2023-06-04T08:18:06;23.00;71.60
13464;DHT22;6804;48.774;9.174;2023-06-04T08:20:34;23.20;71.60
13464;DHT22;6804;48.774;9.174;2023-06-04T08:23:02;23.40;70.80
13464;DHT22;6804;48.774;9.174;2023-06-04T08:25:29;23.70;70.80
13464;DHT22;6804;48.774;9.174;2023-06-04T08:27:57;23.90;69.90
13464;DHT22;6804;48.774;9.174;2023-06-04T08:30:25;24.10;69.10
13464;DHT22;6804;48.774;9.174;2023-06-04T08:32:54;24.00;68.40
13464;DHT22;6804;48.774;9.174;2023-06-04T08:35:22;23.80;69.40
13464;DHT22;6804;48.774;9.174;2023-06-04T08:37:51;23.20;70.80
13464;DHT22;6804;48.774;9.174;2023-06-04T08:40:22;23.40;71.50
13464;DHT22;6804;48.774;9.174;2023-06-04T08:42:51;23.60;70.60
13464;DHT22;6804;48.774;9.174;2023-06-04T08:45:24;23.90;69.50
13464;DHT22;6804;48.774;9.174;2023-06-04T08:47:52;24.20;70.20
13464;DHT22;6804;48.774;9.174;2023-06-04T08:50:22;24.50;69.80
13464;DHT22;6804;48.774;9.174;2023-06-04T08:52:52;24.40;69.50
13464;DHT22;6804;48.774;9.174;2023-06-04T08:55:20;23.60;69.20
13464;DHT22;6804;48.774;9.174;2023-06-04T08:57:51;23.30;71.50
13464;DHT22;6804;48.774;9.174;2023-06-04T09:00:19;23.50;71.50
13464;DHT22;6804;48.774;9.174;2023-06-04T09:02:50;23.70;70.80
13464;DHT22;6804;48.774;9.174;2023-06-04T09:05:25;23.90;71.10
13464;DHT22;6804;48.774;9.174;2023-06-04T09:07:53;24.00;70.10
13464;DHT22;6804;48.774;9.174;2023-06-04T09:10:24;23.70;71.40
13464;DHT22;6804;48.774;9.174;2023-06-04T09:12:52;24.00;70.90
13464;DHT22;6804;48.774;9.174;2023-06-04T09:15:21;24.20;70.30
13464;DHT22;6804;48.774;9.174;2023-06-04T09:17:49;24.50;70.30
13464;DHT22;6804;48.774;9.174;2023-06-04T09:20:24;24.80;69.60
13464;DHT22;6804;48.774;9.174;2023-06-04T09:22:51;25.00;69.10
13464;DHT22;6804;48.774;9.174;2023-06-04T09:25:23;25.10;67.70
13464;DHT22;6804;48.774;9.174;2023-06-04T09:27:54;25.10;69.10
13464;DHT22;6804;48.774;9.174;2023-06-04T09:30:25;25.00;68.30
13464;DHT22;6804;48.774;9.174;2023-06-04T09:32:52;25.10;68.60
13464;DHT22;6804;48.774;9.174;2023-06-04T09:35:20;25.30;68.30
13464;DHT22;6804;48.774;9.174;2023-06-04T09:37:56;25.50;67.20
13464;DHT22;6804;48.774;9.174;2023-06-04T09:40:23;25.70;67.30
13464;DHT22;6804;48.774;9.174;2023-06-04T09:42:52;25.80;66.40
13464;DHT22;6804;48.774;9.174;2023-06-04T09:45:27;25.80;65.40
13464;DHT22;6804;48.774;9.174;2023-06-04T09:47:57;25.40;64.30
13464;DHT22;6804;48.774;9.174;2023-06-04T09:50:29;24.70;66.00
13464;DHT22;6804;48.774;9.174;2023-06-04T09:53:00;24.50;67.20
13464;DHT22;6804;48.774;9.174;2023-06-04T09:55:28;24.60;68.40
13464;DHT22;6804;48.774;9.174;2023-06-04T09:57:59;24.80;66.30
13464;DHT22;6804;48.774;9.174;2023-06-04T10:00:33;24.70;66.50
13464;DHT22;6804;48.774;9.174;2023-06-04T10:03:02;24.90;66.50
13464;DHT22;6804;48.774;9.174;2023-06-04T10:05:32;25.10;65.90
13464;DHT22;6804;48.774;9.174;2023-06-04T10:08:04;25.40;64.60
13464;DHT22;6804;48.774;9.174;2023-06-04T10:10:34;25.80;64.90
13464;DHT22;6804;48.774;9.174;2023-06-04T10:13:05;25.90;63.00
13464;DHT22;6804;48.774;9.174;2023-06-04T10:15:37;26.00;61.60
13464;DHT22;6804;48.774;9.174;2023-06-04T10:18:05;26.00;61.80
13464;DHT22;6804;48.774;9.174;2023-06-04T10:20:33;25.70;62.70
13464;DHT22;6804;48.774;9.174;2023-06-04T10:23:02;25.40;62.80
13464;DHT22;6804;48.774;9.174;2023-06-04T10:25:36;25.10;63.10
13464;DHT22;6804;48.774;9.174;2023-06-04T10:28:06;24.60;64.60
13464;DHT22;6804;48.774;9.174;2023-06-04T10:30:34;24.00;65.80
13464;DHT22;6804;48.774;9.174;2023-06-04T10:33:02;23.90;65.40
13464;DHT22;6804;48.774;9.174;2023-06-04T10:35:34;24.20;67.00
13464;DHT22;6804;48.774;9.174;2023-06-04T10:38:08;24.30;65.40
13464;DHT22;6804;48.774;9.174;2023-06-04T10:40:39;24.10;66.20
13464;DHT22;6804;48.774;9.174;2023-06-04T10:43:10;24.20;66.50
13464;DHT22;6804;48.774;9.174;2023-06-04T10:45:45;24.60;65.70
13464;DHT22;6804;48.774;9.174;2023-06-04T10:48:16;24.90;65.20
13464;DHT22;6804;48.774;9.174;2023-06-04T10:50:51;25.30;64.30
13464;DHT22;6804;48.774;9.174;2023-06-04T10:53:36;24.90;64.50
13464;DHT22;6804;48.774;9.174;2023-06-04T10:56:07;24.40;65.00
13464;DHT22;6804;48.774;9.174;2023-06-04T10:58:34;24.20;66.00
13464;DHT22;6804;48.774;9.174;2023-06-04T11:01:05;24.00;66.30
13464;DHT22;6804;48.774;9.174;2023-06-04T11:03:36;24.30;67.20
13464;DHT22;6804;48.774;9.174;2023-06-04T11:06:15;24.80;65.50
13464;DHT22;6804;48.774;9.174;2023-06-04T11:08:45;25.10;65.30
13464;DHT22;6804;48.774;9.174;2023-06-04T11:11:16;25.50;65.20
13464;DHT22;6804;48.774;9.174;2023-06-04T11:13:47;25.90;63.00
13464;DHT22;6804;48.774;9.174;2023-06-04T11:16:18;25.60;63.60
13464;DHT22;6804;48.774;9.174;2023-06-04T11:18:54;25.80;63.90
13464;DHT22;6804;48.774;9.174;2023-06-04T11:21:23;26.20;62.90
13464;DHT22;6804;48.774;9.174;2023-06-04T11:23:58;26.30;61.40
13464;DHT22;6804;48.774;9.174;2023-06-04T11:26:30;26.50;62.10
13464;DHT22;6804;48.774;9.174;2023-06-04T11:29:02;26.80;60.90
13464;DHT22;6804;48.774;9.174;2023-06-04T11:31:43;26.90;60.80
13464;DHT22;6804;48.774;9.174;2023-06-04T11:34:29;27.00;60.50
13464;DHT22;6804;48.774;9.174;2023-06-04T11:37:07;27.10;60.60
13464;DHT22;6804;48.774;9.174;2023-06-04T11:39:37;27.30;60.10
13464;DHT22;6804;48.774;9.174;2023-06-04T11:42:07;27.50;59.50
13464;DHT22;6804;48.774;9.174;2023-06-04T11:44:36;27.70;59.10
13464;DHT22;6804;48.774;9.174;2023-06-04T11:47:05;27.80;57.90
13464;DHT22;6804;48.774;9.174;2023-06-04T11:49:35;27.90;58.70
13464;DHT22;6804;48.774;9.174;2023-06-04T11:52:04;27.80;58.50
13464;DHT22;6804;48.774;9.174;2023-06-04T11:54:33;28.00;58.20
13464;DHT22;6804;48.774;9.174;2023-06-04T11:57:09;28.20;57.90
13464;DHT22;6804;48.774;9.174;2023-06-04T11:59:37;28.20;57.50
13464;DHT22;6804;48.774;9.174;2023-06-04T12:02:07;28.20;57.00
13464;DHT22;6804;48.774;9.174;2023-06-04T12:04:35;28.10;57.20
13464;DHT22;6804;48.774;9.174;2023-06-04T12:07:07;28.10;56.60
13464;DHT22;6804;48.774;9.174;2023-06-04T12:09:35;27.50;57.60
13464;DHT22;6804;48.774;9.174;2023-06-04T12:12:11;27.40;57.60
13464;DHT22;6804;48.774;9.174;2023-06-04T12:14:41;27.10;58.30
13464;DHT22;6804;48.774;9.174;2023-06-04T12:17:10;27.10;58.70
13464;DHT22;6804;48.774;9.174;2023-06-04T12:19:46;27.20;58.20
13464;DHT22;6804;48.774;9.174;2023-06-04T12:22:15;27.40;57.60
13464;DHT22;6804;48.774;9.174;2023-06-04T12:24:50;27.70;57.60
13464;DHT22;6804;48.774;9.174;2023-06-04T12:27:21;28.00;56.80
13464;DHT22;6804;48.774;9.174;2023-06-04T12:29:57;28.00;56.40
13464;DHT22;6804;48.774;9.174;2023-06-04T12:32:28;27.90;57.10
13464;DHT22;6804;48.774;9.174;2023-06-04T12:35:00;27.90;57.10
13464;DHT22;6804;48.774;9.174;2023-06-04T12:37:29;28.00;57.00
13464;DHT22;6804;48.774;9.174;2023-06-04T12:40:00;28.30;57.00
13464;DHT22;6804;48.774;9.174;2023-06-04T12:42:31;28.30;56.10
13464;DHT22;6804;48.774;9.174;2023-06-04T12:44:58;28.20;56.00
13464;DHT22;6804;48.774;9.174;2023-06-04T12:47:29;28.10;56.20
13464;DHT22;6804;48.774;9.174;2023-06-04T12:49:58;28.10;56.40
13464;DHT22;6804;48.774;9.174;2023-06-04T12:52:26;27.70;56.60
13464;DHT22;6804;48.774;9.174;2023-06-04T12:54:54;27.70;56.40
13464;DHT22;6804;48.774;9.174;2023-06-04T12:57:25;28.00;56.80
13464;DHT22;6804;48.774;9.174;2023-06-04T12:59:57;28.10;54.90
13464;DHT22;6804;48.774;9.174;2023-06-04T13:02:25;28.30;54.70
13464;DHT22;6804;48.774;9.174;2023-06-04T13:04:55;28.30;55.10
13464;DHT22;6804;48.774;9.174;2023-06-04T13:07:26;28.30;54.30
13464;DHT22;6804;48.774;9.174;2023-06-04T13:09:57;28.30;54.90
13464;DHT22;6804;48.774;9.174;2023-06-04T13:12:25;28.40;55.00
13464;DHT22;6804;48.774;9.174;2023-06-04T13:14:52;28.30;54.10
13464;DHT22;6804;48.774;9.174;2023-06-04T13:17:23;27.50;54.90
13464;DHT22;6804;48.774;9.174;2023-06-04T13:19:51;26.60;55.60
13464;DHT22;6804;48.774;9.174;2023-06-04T13:22:21;26.40;56.00
13464;DHT22;6804;48.774;9.174;2023-06-04T13:24:48;26.30;55.70
13464;DHT22;6804;48.774;9.174;2023-06-04T13:27:16;26.10;56.40
13464;DHT22;6804;48.774;9.174;2023-06-04T13:29:44;25.80;55.60
13464;DHT22;6804;48.774;9.174;2023-06-04T13:32:14;25.50;56.60
13464;DHT22;6804;48.774;9.174;2023-06-04T13:34:45;25.60;56.60
13464;DHT22;6804;48.774;9.174;2023-06-04T13:37:13;25.70;56.80
13464;DHT22;6804;48.774;9.174;2023-06-04T13:39:42;26.10;57.20
13464;DHT22;6804;48.774;9.174;2023-06-04T13:42:09;26.40;56.50
13464;DHT22;6804;48.774;9.174;2023-06-04T13:44:37;26.60;55.60
13464;DHT22;6804;48.774;9.174;2023-06-04T13:47:11;26.70;55.00
13464;DHT22;6804;48.774;9.174;2023-06-04T13:49:38;26.60;54.90
13464;DHT22;6804;48.774;9.174;2023-06-04T13:52:08;26.30;55.70
13464;DHT22;6804;48.774;9.174;2023-06-04T13:54:36;26.20;56.50
13464;DHT22;6804;48.774;9.174;2023-06-04T13:57:04;26.00;56.90
13464;DHT22;6804;48.774;9.174;2023-06-04T13:59:32;26.20;56.20
13464;DHT22;6804;48.774;9.174;2023-06-04T14:02:00;25.90;56.90
13464;DHT22;6804;48.774;9.174;2023-06-04T14:04:28;26.00;56.90
13464;DHT22;6804;48.774;9.174;2023-06-04T14:06:56;26.20;56.20
13464;DHT22;6804;48.774;9.174;2023-06-04T14:09:25;26.50;55.60
13464;DHT22;6804;48.774;9.174;2023-06-04T14:11:53;26.70;55.10
13464;DHT22;6804;48.774;9.174;2023-06-04T14:14:21;26.90;54.60
13464;DHT22;6804;48.774;9.174;2023-06-04T14:16:48;27.20;54.60
13464;DHT22;6804;48.774;9.174;2023-06-04T14:19:16;27.30;53.10
13464;DHT22;6804;48.774;9.174;2023-06-04T14:21:44;27.20;52.50
13464;DHT22;6804;48.774;9.174;2023-06-04T14:24:11;26.70;52.90
13464;DHT22;6804;48.774;9.174;2023-06-04T14:26:40;26.60;54.10
13464;DHT22;6804;48.774;9.174;2023-06-04T14:29:08;26.60;54.90
13464;DHT22;6804;48.774;9.174;2023-06-04T14:31:36;26.80;54.80
13464;DHT22;6804;48.774;9.174;2023-06-04T14:34:03;27.00;54.40
13464;DHT22;6804;48.774;9.174;2023-06-04T14:36:33;27.20;54.20
13464;DHT22;6804;48.774;9.174;2023-06-04T14:39:03;27.40;53.60
13464;DHT22;6804;48.774;9.174;2023-06-04T14:41:34;27.60;53.90
13464;DHT22;6804;48.774;9.174;2023-06-04T14:44:03;27.80;53.70
13464;DHT22;6804;48.774;9.174;2023-06-04T14:46:30;28.00;53.30
13464;DHT22;6804;48.774;9.174;2023-06-04T14:48:59;28.20;52.90
13464;DHT22;6804;48.774;9.174;2023-06-04T14:51:27;27.40;51.10
13464;DHT22;6804;48.774;9.174;2023-06-04T14:53:54;27.00;52.50
13464;DHT22;6804;48.774;9.174;2023-06-04T14:56:22;26.50;52.30
13464;DHT22;6804;48.774;9.174;2023-06-04T14:58:50;25.90;53.30
13464;DHT22;6804;48.774;9.174;2023-06-04T15:01:21;26.20;53.10
13464;DHT22;6804;48.774;9.174;2023-06-04T15:03:50;26.30;52.60
13464;DHT22;6804;48.774;9.174;2023-06-04T15:06:24;26.50;53.20
13464;DHT22;6804;48.774;9.174;2023-06-04T15:08:54;26.80;52.90
13464;DHT22;6804;48.774;9.174;2023-06-04T15:11:25;27.00;51.60
13464;DHT22;6804;48.774;9.174;2023-06-04T15:13:53;27.20;52.10
13464;DHT22;6804;48.774;9.174;2023-06-04T15:16:24;27.30;51.40
13464;DHT22;6804;48.774;9.174;2023-06-04T15:18:53;27.50;52.10
13464;DHT22;6804;48.774;9.174;2023-06-04T15:21:22;27.70;51.40
13464;DHT22;6804;48.774;9.174;2023-06-04T15:23:50;27.70;51.40
13464;DHT22;6804;48.774;9.174;2023-06-04T15:26:19;27.70;51.40
13464;DHT22;6804;48.774;9.174;2023-06-04T15:28:47;27.80;51.40
13464;DHT22;6804;48.774;9.174;2023-06-04T15:31:14;27.80;51.30
13464;DHT22;6804;48.774;9.174;2023-06-04T15:33:43;27.70;51.30
13464;DHT22;6804;48.774;9.174;2023-06-04T15:36:11;27.60;50.90
13464;DHT22;6804;48.774;9.174;2023-06-04T15:38:39;27.50;51.60
13464;DHT22;6804;48.774;9.174;2023-06-04T15:41:12;27.50;51.50
13464;DHT22;6804;48.774;9.174;2023-06-04T15:43:40;27.40;51.70
13464;DHT22;6804;48.774;9.174;2023-06-04T15:46:08;27.50;51.60
13464;DHT22;6804;48.774;9.174;2023-06-04T15:48:35;27.60;51.30
13464;DHT22;6804;48.774;9.174;2023-06-04T15:51:04;27.60;51.20
13464;DHT22;6804;48.774;9.174;2023-06-04T15:53:34;27.60;51.30
13464;DHT22;6804;48.774;9.174;2023-06-04T15:56:04;27.60;51.70
13464;DHT22;6804;48.774;9.174;2023-06-04T15:58:32;27.70;51.30
13464;DHT22;6804;48.774;9.174;2023-06-04T16:01:07;27.70;50.80
13464;DHT22;6804;48.774;9.174;2023-06-04T16:03:35;27.50;51.10